Time;durP1;ratioP1;P1;durP2;ratioP2;P2;SDS_P1;SDS_P2;PMS_P1;PMS_P2;Temp;Humidity;BMP_temperature;BMP_pressure;BME280_temperature;BME280_humidity;BME280_pressure;Samples;Min_cycle;Max_cycle;Signal;HPM_P1;HPM_P2
2022/02/08 00:00:17;;;;;;;;;;;;;;;;;;5029102;28;19909;-73
2022/02/08 00:02:47;;;;;;;;;;;;;;;;;;5029318;28;19913;-74
2022/02/08 00:05:14;;;;;;;;;;;;;;;;;;5027575;28;20428;-72
2022/02/08 00:07:40;;;;;;;;;;;;;;;;;;5029109;28;19999;-70
2022/02/08 00:10:06;;;;;;;;;;;;;;;;;;5029674;28;19956;-71
2022/02/08 00:12:31;;;;;;;;;;;;;;;;;;5032968;28;19963;-71
2022/02/08 00:14:56;;;;;;;;;;;;;;;;;;5031542;28;19912;-72
2022/02/08 00:17:22;;;;;;;;;;;;;;;;;;5031242;28;19913;-71
2022/02/08 00:19:47;;;;;;;;;;;;;;;;;;5032722;28;19908;-71
2022/02/08 00:22:12;;;;;;;;;;;;;;;;;;5031187;28;19913;-70
2022/02/08 00:24:38;;;;;;;;;;;;;;;;;;5031186;28;19932;-71
2022/02/08 00:27:05;;;;;;;;;;;;;;;;;;5032440;28;19916;-72
2022/02/08 00:29:31;;;;;;;;;;;;;;;;;;5033187;28;20120;-78
2022/02/08 00:31:56;;;;;;;;;;;;;;;;;;5031579;28;20731;-77
2022/02/08 00:34:21;;;;;;;;;;;;;;;;;;5032744;28;19940;-77
2022/02/08 00:36:47;;;;;;;;;;;;;;;;;;5032615;28;19968;-77
2022/02/08 00:39:12;;;;;;;;;;;;;;;;;;5032653;28;19909;-78
2022/02/08 00:41:38;;;;;;;;;;;;;;;;;;5031423;28;20285;-78
2022/02/08 00:44:10;;;;;;;;;;;;;;;;;;5030997;28;19913;-77
2022/02/08 00:49:03;;;;;;;;;;;;;;;;;;5032250;28;19913;-76
2022/02/08 00:51:38;;;;;;;;;;;;;;;;;;5030888;28;19917;-78
2022/02/08 00:54:04;;;;;;;;;;;;;;;;;;5030639;28;19913;-76
2022/02/08 00:56:29;;;;;;;;;;;;;;;;;;5032149;28;19917;-77
2022/02/08 00:58:55;;;;;;;;;;;;;;;;;;5032505;28;19920;-76
2022/02/08 01:01:20;;;;;;;;;;;;;;;;;;5031002;28;20399;-77
2022/02/08 01:03:45;;;;;;;;;;;;;;;;;;5032282;28;20295;-78
2022/02/08 01:06:11;;;;;;;;;;;;;;;;;;5030912;28;19928;-78
2022/02/08 01:08:38;;;;;;;;;;;;;;;;;;5032146;28;19962;-77
2022/02/08 01:11:04;;;;;;;;;;;;;;;;;;5030432;28;19916;-76
2022/02/08 01:13:30;;;;;;;;;;;;;;;;;;5031851;28;19915;-77
2022/02/08 01:15:56;;;;;;;;;;;;;;;;;;5031793;28;20340;-76
2022/02/08 01:18:22;;;;;;;;;;;;;;;;;;5030440;28;19917;-76
2022/02/08 01:20:48;;;;;;;;;;;;;;;;;;5031718;28;19909;-78
2022/02/08 01:23:13;;;;;;;;;;;;;;;;;;5031442;28;19973;-77
2022/02/08 01:25:49;;;;;;;;;;;;;;;;;;5030471;28;19913;-79
2022/02/08 01:28:35;;;;;;;;;;;;;;;;;;5030697;28;19909;-79
2022/02/08 01:31:03;;;;;;;;;;;;;;;;;;5032063;28;19943;-76
2022/02/08 01:39:41;;;;;;;;;;;;;;;;;;5032914;28;19931;-77
2022/02/08 01:47:16;;;;;;;;;;;;;;;;;;5048523;28;19923;-74
2022/02/08 01:50:00;;;;;;;;;;;;;;;;;;5031631;28;19935;-72
2022/02/08 01:52:25;;;;;;;;;;;;;;;;;;5045779;28;19913;-74
2022/02/08 01:54:55;;;;;;;;;;;;;;;;;;5029661;28;19917;-74
2022/02/08 01:57:20;;;;;;;;;;;;;;;;;;5030999;28;19909;-73
2022/02/08 01:59:45;;;;;;;;;;;;;;;;;;5031223;28;19913;-74
2022/02/08 02:02:11;;;;;;;;;;;;;;;;;;5029382;28;20073;-74
2022/02/08 02:04:36;;;;;;;;;;;;;;;;;;5029605;28;19920;-73
2022/02/08 02:07:02;;;;;;;;;;;;;;;;;;5030905;28;19996;-73
2022/02/08 02:09:28;;;;;;;;;;;;;;;;;;5029185;28;20250;-73
2022/02/08 02:11:54;;;;;;;;;;;;;;;;;;5029355;28;19992;-73
2022/02/08 02:14:19;;;;;;;;;;;;;;;;;;5030718;28;19909;-80
2022/02/08 02:16:56;;;;;;;;;;;;;;;;;;5030903;28;19920;-78
2022/02/08 02:19:24;;;;;;;;;;;;;;;;;;5030838;28;19917;-76
2022/02/08 02:21:49;;;;;;;;;;;;;;;;;;5029392;28;19952;-80
2022/02/08 02:24:15;;;;;;;;;;;;;;;;;;5030580;28;19948;-79
2022/02/08 02:26:40;;;;;;;;;;;;;;;;;;5029329;28;20375;-78
2022/02/08 02:29:06;;;;;;;;;;;;;;;;;;5029172;28;19913;-77
2022/02/08 02:31:31;;;;;;;;;;;;;;;;;;5030687;28;19960;-77
2022/02/08 02:33:56;;;;;;;;;;;;;;;;;;5032317;28;19963;-77
2022/02/08 02:36:22;;;;;;;;;;;;;;;;;;5029883;28;19940;-76
2022/02/08 02:38:47;;;;;;;;;;;;;;;;;;5034079;28;19909;-74
2022/02/08 02:41:13;;;;;;;;;;;;;;;;;;5035070;28;19971;-75
2022/02/08 02:43:40;;;;;;;;;;;;;;;;;;5037853;28;19909;-77
2022/02/08 02:46:05;;;;;;;;;;;;;;;;;;5039560;28;19916;-75
2022/02/08 02:48:31;;;;;;;;;;;;;;;;;;5037676;28;19916;-77
2022/02/08 02:50:56;;;;;;;;;;;;;;;;;;5031040;28;19913;-77
2022/02/08 02:53:26;;;;;;;;;;;;;;;;;;5029770;28;19913;-76
2022/02/08 02:55:52;;;;;;;;;;;;;;;;;;5028862;28;19963;-70
2022/02/08 02:58:19;;;;;;;;;;;;;;;;;;5029713;28;19913;-71
2022/02/08 03:01:03;;;;;;;;;;;;;;;;;;5028482;28;20004;-71
2022/02/08 03:03:43;;;;;;;;;;;;;;;;;;5028603;28;19935;-72
2022/02/08 03:19:48;;;;;;;;;;;;;;;;;;5030168;28;19940;-73
2022/02/08 03:22:14;;;;;;;;;;;;;;;;;;5028056;28;20361;-73
2022/02/08 03:24:39;;;;;;;;;;;;;;;;;;5028276;28;20012;-74
2022/02/08 03:27:04;;;;;;;;;;;;;;;;;;5028323;28;19924;-73
2022/02/08 03:29:30;;;;;;;;;;;;;;;;;;5028015;28;20464;-73
2022/02/08 03:31:55;;;;;;;;;;;;;;;;;;5029818;28;19912;-73
2022/02/08 03:34:20;;;;;;;;;;;;;;;;;;5029385;28;19913;-72
2022/02/08 03:36:46;;;;;;;;;;;;;;;;;;5029512;28;20266;-72
2022/02/08 03:41:42;;;;;;;;;;;;;;;;;;5029905;28;19909;-74
2022/02/08 03:44:16;;;;;;;;;;;;;;;;;;5029697;28;19916;-73
2022/02/08 03:46:42;;;;;;;;;;;;;;;;;;5031527;28;19963;-72
2022/02/08 03:49:08;;;;;;;;;;;;;;;;;;5033838;28;19913;-73
2022/02/08 03:51:46;;;;;;;;;;;;;;;;;;5033467;28;19948;-72
2022/02/08 03:54:12;;;;;;;;;;;;;;;;;;5032131;28;19951;-73
2022/02/08 03:56:37;;;;;;;;;;;;;;;;;;5033353;28;19949;-72
2022/02/08 03:59:04;;;;;;;;;;;;;;;;;;5033488;28;19975;-72
2022/02/08 04:04:25;;;;;;;;;;;;;;;;;;5033642;28;19916;-72
2022/02/08 04:06:53;;;;;;;;;;;;;;;;;;5033167;28;19913;-73
2022/02/08 04:09:18;;;;;;;;;;;;;;;;;;5031868;28;20354;-74
2022/02/08 04:12:24;;;;;;;;;;;;;;;;;;5033289;28;19919;-73
2022/02/08 04:19:48;;;;;;;;;;;;;;;;;;5032903;28;19909;-73
2022/02/08 04:33:18;;;;;;;;;;;;;;;;;;5032822;28;19962;-73
2022/02/08 04:43:24;;;;;;;;;;;;;;;;;;5032799;28;19909;-74
2022/02/08 04:49:00;;;;;;;;;;;;;;;;;;5032724;28;19913;-73
2022/02/08 04:51:12;;;;;;;;;;;;;;;;;;5038411;28;19913;-74
2022/02/08 04:53:45;;;;;;;;;;;;;;;;;;5032134;28;20421;-72
2022/02/08 05:02:01;;;;;;;;;;;;;;;;;;5031954;28;20193;-73
2022/02/08 05:47:40;;;;;;;;;;;;;;;;;;5030884;28;19909;-73
2022/02/08 05:50:12;;;;;;;;;;;;;;;;;;5031502;28;19909;-74
2022/02/08 05:55:11;;;;;;;;;;;;;;;;;;5031529;28;20284;-74
2022/02/08 05:57:37;;;;;;;;;;;;;;;;;;5031159;28;19909;-73
2022/02/08 06:00:04;;;;;;;;;;;;;;;;;;5029665;28;19987;-75
2022/02/08 06:02:29;;;;;;;;;;;;;;;;;;5029697;28;20427;-72
2022/02/08 06:04:54;;;;;;;;;;;;;;;;;;5031001;28;19916;-73
2022/02/08 06:07:22;;;;;;;;;;;;;;;;;;5030794;28;19909;-74
2022/02/08 06:09:51;;;;;;;;;;;;;;;;;;5029542;28;19909;-73
2022/02/08 06:12:17;;;;;;;;;;;;;;;;;;5030951;28;19916;-73
2022/02/08 06:14:43;;;;;;;;;;;;;;;;;;5029300;28;19912;-73
2022/02/08 06:17:09;;;;;;;;;;;;;;;;;;5029731;28;20344;-73
2022/02/08 06:19:34;;;;;;;;;;;;;;;;;;5021801;28;19999;-74
2022/02/08 06:22:00;;;;;;;;;;;;;;;;;;5013692;28;19964;-73
2022/02/08 06:24:25;;;;;;;;;;;;;;;;;;5010602;28;19936;-72
2022/02/08 06:26:50;;;;;;;;;;;;;;;;;;5020143;28;19978;-74
2022/02/08 06:29:21;;;;;;;;;;;;;;;;;;5013235;28;19948;-73
2022/02/08 06:31:47;;;;;;;;;;;;;;;;;;5028770;28;19909;-73
2022/02/08 06:34:17;;;;;;;;;;;;;;;;;;5028872;28;20333;-72
2022/02/08 06:36:42;;;;;;;;;;;;;;;;;;5028535;28;19966;-73
2022/02/08 06:39:08;;;;;;;;;;;;;;;;;;5028240;28;19916;-74
2022/02/08 06:41:33;;;;;;;;;;;;;;;;;;5029325;28;19909;-72
2022/02/08 06:44:00;;;;;;;;;;;;;;;;;;5037100;28;19912;-73
2022/02/08 06:46:27;;;;;;;;;;;;;;;;;;5038975;28;19921;-73
2022/02/08 06:48:52;;;;;;;;;;;;;;;;;;5044033;28;19956;-73
2022/02/08 06:51:18;;;;;;;;;;;;;;;;;;5027203;28;19952;-73
2022/02/08 06:53:43;;;;;;;;;;;;;;;;;;5015570;28;20361;-73
2022/02/08 06:56:09;;;;;;;;;;;;;;;;;;5029232;28;20199;-74
2022/02/08 06:58:57;;;;;;;;;;;;;;;;;;5039770;28;19909;-75
2022/02/08 07:01:27;;;;;;;;;;;;;;;;;;5031050;28;19917;-73
2022/02/08 07:03:53;;;;;;;;;;;;;;;;;;5041459;28;19917;-74
2022/02/08 07:06:18;;;;;;;;;;;;;;;;;;5028269;28;20494;-74
2022/02/08 07:08:44;;;;;;;;;;;;;;;;;;5040738;28;19932;-72
2022/02/08 07:11:15;;;;;;;;;;;;;;;;;;5038645;28;19964;-73
2022/02/08 07:13:42;;;;;;;;;;;;;;;;;;5022858;28;20388;-73
2022/02/08 07:16:08;;;;;;;;;;;;;;;;;;5026192;28;20393;-73
2022/02/08 07:18:33;;;;;;;;;;;;;;;;;;5022015;28;19924;-73
2022/02/08 07:20:58;;;;;;;;;;;;;;;;;;5015157;28;19924;-74
2022/02/08 07:23:24;;;;;;;;;;;;;;;;;;5022975;28;20015;-72
2022/02/08 07:25:52;;;;;;;;;;;;;;;;;;5028138;28;20021;-73
2022/02/08 07:28:17;;;;;;;;;;;;;;;;;;5038455;28;20054;-73
2022/02/08 07:30:44;;;;;;;;;;;;;;;;;;5022377;28;20003;-74
2022/02/08 07:33:09;;;;;;;;;;;;;;;;;;5024401;28;20706;-74
2022/02/08 07:38:22;;;;;;;;;;;;;;;;;;5025240;28;19920;-73
2022/02/08 07:43:16;;;;;;;;;;;;;;;;;;5022263;28;19966;-72
2022/02/08 07:45:42;;;;;;;;;;;;;;;;;;5022274;28;19921;-73
2022/02/08 07:48:08;;;;;;;;;;;;;;;;;;5021077;28;19924;-73
2022/02/08 07:50:38;;;;;;;;;;;;;;;;;;5020392;28;19933;-73
2022/02/08 07:53:04;;;;;;;;;;;;;;;;;;5022387;28;19921;-72
2022/02/08 07:55:29;;;;;;;;;;;;;;;;;;5024866;28;20486;-73
2022/02/08 07:57:55;;;;;;;;;;;;;;;;;;5018774;28;20012;-74
2022/02/08 08:00:20;;;;;;;;;;;;;;;;;;5015320;28;19965;-73
2022/02/08 08:02:46;;;;;;;;;;;;;;;;;;5018612;28;19916;-73
2022/02/08 08:05:12;;;;;;;;;;;;;;;;;;5022090;28;19916;-73
2022/02/08 08:07:38;;;;;;;;;;;;;;;;;;5018706;28;19921;-74
2022/02/08 08:10:06;;;;;;;;;;;;;;;;;;5013494;28;19921;-74
2022/02/08 08:12:34;;;;;;;;;;;;;;;;;;5019198;28;20573;-72
2022/02/08 08:15:07;;;;;;;;;;;;;;;;;;5019764;28;20111;-75
2022/02/08 08:17:55;;;;;;;;;;;;;;;;;;5018438;28;19916;-73
2022/02/08 08:20:20;;;;;;;;;;;;;;;;;;5018706;28;20386;-73
2022/02/08 08:22:45;;;;;;;;;;;;;;;;;;5026900;28;20007;-73
2022/02/08 08:25:11;;;;;;;;;;;;;;;;;;5026778;28;19913;-72
2022/02/08 08:27:36;;;;;;;;;;;;;;;;;;5022324;28;19956;-73
2022/02/08 08:30:02;;;;;;;;;;;;;;;;;;5016899;28;20546;-73
2022/02/08 08:32:27;;;;;;;;;;;;;;;;;;5021675;28;19921;-73
2022/02/08 08:34:53;;;;;;;;;;;;;;;;;;5022996;28;20387;-73
2022/02/08 08:37:19;;;;;;;;;;;;;;;;;;5021077;28;19917;-74
2022/02/08 08:39:48;;;;;;;;;;;;;;;;;;5019512;28;19924;-74
2022/02/08 08:42:31;;;;;;;;;;;;;;;;;;5021969;28;19921;-73
2022/02/08 08:50:33;;;;;;;;;;;;;;;;;;5019385;28;19927;-72
2022/02/08 08:52:59;;;;;;;;;;;;;;;;;;5021416;28;20254;-74
2022/02/08 08:55:24;;;;;;;;;;;;;;;;;;5020043;28;19925;-72
2022/02/08 08:57:51;;;;;;;;;;;;;;;;;;5023518;28;19920;-73
2022/02/08 09:00:17;;;;;;;;;;;;;;;;;;5017791;28;19922;-73
2022/02/08 09:02:42;;;;;;;;;;;;;;;;;;5022027;28;19917;-74
2022/02/08 09:05:11;;;;;;;;;;;;;;;;;;5023710;28;19921;-73
2022/02/08 09:07:39;;;;;;;;;;;;;;;;;;5020291;28;20242;-72
2022/02/08 09:10:06;;;;;;;;;;;;;;;;;;5018122;28;19923;-73
2022/02/08 09:13:03;;;;;;;;;;;;;;;;;;5021518;28;19974;-72
2022/02/08 09:24:11;;;;;;;;;;;;;;;;;;5017936;28;19967;-72
2022/02/08 09:29:38;;;;;;;;;;;;;;;;;;5021933;28;19919;-74
2022/02/08 09:32:12;;;;;;;;;;;;;;;;;;5018650;28;19929;-74
2022/02/08 09:34:41;;;;;;;;;;;;;;;;;;5019137;28;20599;-72
2022/02/08 09:37:07;;;;;;;;;;;;;;;;;;5018677;28;19925;-73
2022/02/08 09:39:32;;;;;;;;;;;;;;;;;;5018188;28;19928;-75
2022/02/08 09:41:59;;;;;;;;;;;;;;;;;;5021422;28;20280;-73
2022/02/08 09:44:26;;;;;;;;;;;;;;;;;;5018074;28;19919;-72
2022/02/08 09:46:52;;;;;;;;;;;;;;;;;;5018213;28;20468;-73
2022/02/08 09:49:18;;;;;;;;;;;;;;;;;;5017657;28;20467;-74
2022/02/08 09:51:50;;;;;;;;;;;;;;;;;;5020741;28;20537;-73
2022/02/08 09:54:15;;;;;;;;;;;;;;;;;;5022251;28;19948;-73
2022/02/08 09:56:44;;;;;;;;;;;;;;;;;;5023219;28;20744;-74
2022/02/08 09:59:09;;;;;;;;;;;;;;;;;;5020769;28;19917;-75
2022/02/08 10:01:35;;;;;;;;;;;;;;;;;;5021298;28;19971;-74
2022/02/08 10:04:01;;;;;;;;;;;;;;;;;;5023542;28;19971;-75
2022/02/08 10:06:27;;;;;;;;;;;;;;;;;;5017562;28;19917;-75
2022/02/08 10:08:58;;;;;;;;;;;;;;;;;;5018835;28;19923;-74
2022/02/08 10:11:28;;;;;;;;;;;;;;;;;;5036068;28;19913;-75
2022/02/08 10:21:08;;;;;;;;;;;;;;;;;;5016955;28;20300;-76
2022/02/08 10:22:33;;;;;;;;;;;;;;;;;;5017963;28;19927;-75
2022/02/08 10:25:03;;;;;;;;;;;;;;;;;;5016866;28;19921;-74
2022/02/08 10:27:59;;;;;;;;;;;;;;;;;;5017703;28;19947;-74
2022/02/08 10:38:41;;;;;;;;;;;;;;;;;;5020927;28;19924;-74
2022/02/08 10:41:25;;;;;;;;;;;;;;;;;;5019190;28;19920;-73
2022/02/08 10:43:57;;;;;;;;;;;;;;;;;;5028209;28;20342;-73
2022/02/08 10:46:22;;;;;;;;;;;;;;;;;;5022344;28;19917;-75
2022/02/08 10:48:59;;;;;;;;;;;;;;;;;;5023119;28;19916;-73
2022/02/08 10:51:25;;;;;;;;;;;;;;;;;;5005263;28;19917;-73
2022/02/08 10:53:57;;;;;;;;;;;;;;;;;;5018626;28;20281;-74
2022/02/08 10:56:26;;;;;;;;;;;;;;;;;;5019071;28;20014;-73
2022/02/08 10:59:04;;;;;;;;;;;;;;;;;;5018248;28;19924;-74
2022/02/08 11:01:33;;;;;;;;;;;;;;;;;;5002568;28;19924;-73
2022/02/08 11:04:05;;;;;;;;;;;;;;;;;;5018345;28;20155;-73
2022/02/08 11:06:41;;;;;;;;;;;;;;;;;;5018852;28;19952;-74
2022/02/08 11:09:22;;;;;;;;;;;;;;;;;;5019204;28;19917;-73
2022/02/08 11:12:10;;;;;;;;;;;;;;;;;;5019900;28;20381;-72
2022/02/08 11:25:27;;;;;;;;;;;;;;;;;;5019692;28;20533;-74
2022/02/08 11:28:04;;;;;;;;;;;;;;;;;;5020810;28;19917;-74
2022/02/08 11:30:44;;;;;;;;;;;;;;;;;;5028988;28;19925;-72
2022/02/08 11:33:42;;;;;;;;;;;;;;;;;;5035744;28;19917;-73
2022/02/08 11:39:44;;;;;;;;;;;;;;;;;;5014038;28;20480;-72
2022/02/08 11:53:20;;;;;;;;;;;;;;;;;;5021409;28;19928;-74
2022/02/08 11:56:15;;;;;;;;;;;;;;;;;;5017700;28;19928;-73
2022/02/08 11:58:45;;;;;;;;;;;;;;;;;;5021326;28;19965;-76
2022/02/08 12:01:18;;;;;;;;;;;;;;;;;;5018281;28;20027;-76
2022/02/08 12:04:12;;;;;;;;;;;;;;;;;;5020375;28;20363;-75
2022/02/08 12:09:17;;;;;;;;;;;;;;;;;;5023461;28;20292;-75
2022/02/08 12:12:42;;;;;;;;;;;;;;;;;;5015938;28;19921;-73
2022/02/08 12:55:55;;;;;;;;;;;;;;;;;;5021219;28;19925;-75
2022/02/08 12:58:38;;;;;;;;;;;;;;;;;;5007113;28;19921;-74
2022/02/08 13:04:01;;;;;;;;;;;;;;;;;;5020302;28;19920;-75
2022/02/08 13:18:19;;;;;;;;;;;;;;;;;;5019486;28;19921;-73
2022/02/08 14:19:47;;;;;;;;;;;;;;;;;;4976021;28;20449;-75
2022/02/08 14:30:11;;;;;;;;;;;;;;;;;;4994695;28;20328;-74
2022/02/08 14:32:48;;;;;;;;;;;;;;;;;;5006206;28;19913;-75
2022/02/08 14:49:11;;;;;;;;;;;;;;;;;;4986755;28;19921;-75
2022/02/08 15:00:34;;;;;;;;;;;;;;;;;;4989701;28;20040;-74
2022/02/08 15:05:41;;;;;;;;;;;;;;;;;;4984662;28;19932;-74
2022/02/08 15:08:19;;;;;;;;;;;;;;;;;;4989774;28;20219;-75
2022/02/08 15:10:54;;;;;;;;;;;;;;;;;;5004585;28;19952;-76
2022/02/08 15:13:23;;;;;;;;;;;;;;;;;;5001363;28;19913;-74
2022/02/08 15:18:33;;;;;;;;;;;;;;;;;;4986408;28;20306;-74
2022/02/08 15:20:59;;;;;;;;;;;;;;;;;;5003918;28;19918;-75
2022/02/08 15:23:25;;;;;;;;;;;;;;;;;;5008823;28;20323;-75
2022/02/08 15:25:54;;;;;;;;;;;;;;;;;;4986092;28;20009;-74
2022/02/08 15:28:22;;;;;;;;;;;;;;;;;;5009104;28;19920;-74
2022/02/08 15:30:47;;;;;;;;;;;;;;;;;;4996794;28;19922;-74
2022/02/08 15:33:13;;;;;;;;;;;;;;;;;;5004279;28;20327;-73
2022/02/08 15:35:38;;;;;;;;;;;;;;;;;;5007380;28;19921;-74
2022/02/08 15:38:06;;;;;;;;;;;;;;;;;;5019795;28;19936;-74
2022/02/08 15:40:32;;;;;;;;;;;;;;;;;;5012867;28;20247;-73
2022/02/08 15:42:58;;;;;;;;;;;;;;;;;;5005215;28;20437;-73
2022/02/08 15:45:31;;;;;;;;;;;;;;;;;;5018549;28;19995;-74
2022/02/08 15:47:59;;;;;;;;;;;;;;;;;;5001698;28;19917;-74
2022/02/08 15:51:03;;;;;;;;;;;;;;;;;;5001702;28;19913;-74
2022/02/08 16:12:25;;;;;;;;;;;;;;;;;;4998603;28;19920;-75
2022/02/08 16:14:47;;;;;;;;;;;;;;;;;;4997238;28;19973;-73
2022/02/08 16:23:14;;;;;;;;;;;;;;;;;;4994167;28;19920;-74
2022/02/08 16:28:48;;;;;;;;;;;;;;;;;;4973201;28;19986;-74
2022/02/08 16:55:20;;;;;;;;;;;;;;;;;;4992034;28;19924;-74
2022/02/08 17:00:31;;;;;;;;;;;;;;;;;;4993534;28;19924;-75
2022/02/08 17:03:03;;;;;;;;;;;;;;;;;;5007501;28;19961;-73
2022/02/08 17:05:28;;;;;;;;;;;;;;;;;;5007167;28;19920;-75
2022/02/08 17:07:54;;;;;;;;;;;;;;;;;;4992464;28;19910;-75
2022/02/08 17:13:00;;;;;;;;;;;;;;;;;;5003367;28;19969;-75
2022/02/08 17:18:48;;;;;;;;;;;;;;;;;;4999346;28;19920;-75
2022/02/08 17:48:23;;;;;;;;;;;;;;;;;;4998506;28;19925;-78
2022/02/08 17:50:48;;;;;;;;;;;;;;;;;;5009672;28;20293;-76
2022/02/08 17:53:16;;;;;;;;;;;;;;;;;;5014015;28;19960;-76
2022/02/08 17:55:41;;;;;;;;;;;;;;;;;;4994670;28;20346;-78
2022/02/08 17:58:08;;;;;;;;;;;;;;;;;;5017511;28;19919;-79
2022/02/08 18:00:35;;;;;;;;;;;;;;;;;;5015658;28;19922;-78
2022/02/08 18:03:02;;;;;;;;;;;;;;;;;;5019114;28;19913;-77
2022/02/08 18:05:28;;;;;;;;;;;;;;;;;;5015764;28;19965;-77
2022/02/08 18:07:53;;;;;;;;;;;;;;;;;;5012780;28;19971;-76
2022/02/08 18:10:22;;;;;;;;;;;;;;;;;;5006477;28;19914;-79
2022/02/08 18:12:52;;;;;;;;;;;;;;;;;;5001801;28;20352;-77
2022/02/08 18:15:17;;;;;;;;;;;;;;;;;;5015257;28;19963;-76
2022/02/08 18:17:50;;;;;;;;;;;;;;;;;;5012068;28;20338;-78
2022/02/08 19:21:45;;;;;;;;;;;;;;;;;;4997842;28;19984;-78
2022/02/08 19:24:10;;;;;;;;;;;;;;;;;;5004998;28;19964;-78
2022/02/08 19:26:36;;;;;;;;;;;;;;;;;;5001796;28;19920;-79
2022/02/08 19:29:02;;;;;;;;;;;;;;;;;;5012439;28;19913;-78
2022/02/08 19:31:27;;;;;;;;;;;;;;;;;;5012018;28;19993;-79
2022/02/08 19:33:55;;;;;;;;;;;;;;;;;;4997255;28;20289;-77
2022/02/08 19:36:21;;;;;;;;;;;;;;;;;;4997180;28;19921;-77
2022/02/08 19:38:49;;;;;;;;;;;;;;;;;;5003163;28;20304;-78
2022/02/08 19:41:17;;;;;;;;;;;;;;;;;;5013981;28;20362;-79
2022/02/08 19:43:46;;;;;;;;;;;;;;;;;;5011600;28;20476;-80
2022/02/08 19:46:12;;;;;;;;;;;;;;;;;;4997298;28;19949;-76
2022/02/08 19:48:38;;;;;;;;;;;;;;;;;;4996951;28;19955;-77
2022/02/08 19:51:03;;;;;;;;;;;;;;;;;;4997516;28;19926;-79
2022/02/08 19:53:32;;;;;;;;;;;;;;;;;;5019184;28;19920;-78
2022/02/08 19:56:09;;;;;;;;;;;;;;;;;;5004097;28;19925;-79
2022/02/08 19:58:34;;;;;;;;;;;;;;;;;;5014816;28;19925;-78
2022/02/08 20:01:10;;;;;;;;;;;;;;;;;;5018145;28;20184;-78
2022/02/08 20:03:40;;;;;;;;;;;;;;;;;;5015749;28;19920;-78
2022/02/08 20:06:06;;;;;;;;;;;;;;;;;;5002813;28;19913;-77
2022/02/08 20:08:31;;;;;;;;;;;;;;;;;;5010297;28;20405;-81
2022/02/08 20:10:57;;;;;;;;;;;;;;;;;;5005104;28;19913;-78
2022/02/08 20:13:24;;;;;;;;;;;;;;;;;;5013063;28;19913;-78
2022/02/08 20:15:49;;;;;;;;;;;;;;;;;;5012416;28;19957;-78
2022/02/08 20:18:16;;;;;;;;;;;;;;;;;;4997661;28;19961;-80
2022/02/08 20:20:42;;;;;;;;;;;;;;;;;;5004766;28;19967;-80
2022/02/08 20:23:08;;;;;;;;;;;;;;;;;;5002969;28;19921;-78
2022/02/08 20:25:40;;;;;;;;;;;;;;;;;;4999077;28;20275;-80
2022/02/08 20:28:16;;;;;;;;;;;;;;;;;;4997688;28;19936;-80
2022/02/08 20:30:42;;;;;;;;;;;;;;;;;;5008334;28;19925;-81
2022/02/08 20:33:07;;;;;;;;;;;;;;;;;;5009505;28;20361;-78
2022/02/08 20:35:33;;;;;;;;;;;;;;;;;;5017441;28;19917;-77
2022/02/08 20:37:58;;;;;;;;;;;;;;;;;;5019053;28;19963;-77
2022/02/08 20:40:24;;;;;;;;;;;;;;;;;;5018030;28;20362;-74
2022/02/08 20:42:56;;;;;;;;;;;;;;;;;;5012189;28;19925;-76
2022/02/08 20:45:22;;;;;;;;;;;;;;;;;;5002471;28;20063;-76
2022/02/08 20:47:47;;;;;;;;;;;;;;;;;;5019333;28;19913;-79
2022/02/08 20:50:17;;;;;;;;;;;;;;;;;;5002199;28;19976;-79
2022/02/08 20:52:57;;;;;;;;;;;;;;;;;;5016284;28;19936;-78
2022/02/08 20:55:25;;;;;;;;;;;;;;;;;;5025834;28;20274;-77
2022/02/08 20:58:00;;;;;;;;;;;;;;;;;;5010948;28;19969;-78
2022/02/08 21:00:34;;;;;;;;;;;;;;;;;;5004655;28;19914;-79
2022/02/08 21:03:12;;;;;;;;;;;;;;;;;;5004974;28;19967;-78
2022/02/08 21:05:41;;;;;;;;;;;;;;;;;;5003947;28;19924;-78
2022/02/08 21:08:06;;;;;;;;;;;;;;;;;;4997164;28;19918;-78
2022/02/08 21:10:34;;;;;;;;;;;;;;;;;;5003426;28;19917;-78
2022/02/08 21:15:25;;;;;;;;;;;;;;;;;;5005229;28;20004;-78
2022/02/08 21:17:51;;;;;;;;;;;;;;;;;;5006230;28;19917;-77
2022/02/08 21:20:16;;;;;;;;;;;;;;;;;;5016181;28;19929;-77
2022/02/08 21:22:41;;;;;;;;;;;;;;;;;;5003073;28;19913;-78
2022/02/08 21:25:07;;;;;;;;;;;;;;;;;;5017813;28;19914;-77
2022/02/08 21:27:35;;;;;;;;;;;;;;;;;;5018158;28;19969;-76
2022/02/08 21:33:04;;;;;;;;;;;;;;;;;;5003999;28;20234;-77
2022/02/08 21:54:12;;;;;;;;;;;;;;;;;;5010271;28;19920;-80
2022/02/08 21:56:38;;;;;;;;;;;;;;;;;;5013941;28;19918;-78
2022/02/08 21:59:03;;;;;;;;;;;;;;;;;;4998341;28;19917;-79
2022/02/08 22:01:28;;;;;;;;;;;;;;;;;;5004774;28;20362;-78
2022/02/08 22:03:54;;;;;;;;;;;;;;;;;;5005227;28;20385;-78
2022/02/08 22:06:19;;;;;;;;;;;;;;;;;;5004868;28;19960;-78
2022/02/08 22:08:53;;;;;;;;;;;;;;;;;;5019364;28;20098;-78
2022/02/08 22:22:20;;;;;;;;;;;;;;;;;;5001964;28;20071;-70
2022/02/08 22:30:46;;;;;;;;;;;;;;;;;;5002444;28;19917;-71
2022/02/08 22:33:11;;;;;;;;;;;;;;;;;;5008702;28;20286;-69
2022/02/08 22:35:41;;;;;;;;;;;;;;;;;;5017296;28;19917;-71
2022/02/08 22:38:17;;;;;;;;;;;;;;;;;;4998373;28;19913;-71
2022/02/08 22:40:47;;;;;;;;;;;;;;;;;;5016147;28;19925;-72
2022/02/08 22:43:18;;;;;;;;;;;;;;;;;;5015163;28;20373;-71
2022/02/08 22:45:44;;;;;;;;;;;;;;;;;;5014584;28;19924;-71
2022/02/08 22:48:11;;;;;;;;;;;;;;;;;;5000370;28;19917;-71
2022/02/08 22:50:37;;;;;;;;;;;;;;;;;;5002265;28;19913;-74
2022/02/08 22:53:03;;;;;;;;;;;;;;;;;;4999655;28;20394;-70
2022/02/08 22:55:31;;;;;;;;;;;;;;;;;;5011731;28;19917;-72
2022/02/08 22:58:10;;;;;;;;;;;;;;;;;;5003461;28;20004;-70
2022/02/08 23:00:37;;;;;;;;;;;;;;;;;;5018036;28;19959;-73
2022/02/08 23:03:03;;;;;;;;;;;;;;;;;;5013593;28;19999;-70
2022/02/08 23:05:29;;;;;;;;;;;;;;;;;;5002311;28;19940;-72
2022/02/08 23:07:54;;;;;;;;;;;;;;;;;;5012536;28;20029;-70
2022/02/08 23:10:23;;;;;;;;;;;;;;;;;;5001639;28;20016;-72
2022/02/08 23:12:56;;;;;;;;;;;;;;;;;;5012654;28;20275;-70
2022/02/08 23:37:08;;;;;;;;;;;;;;;;;;5002713;28;19928;-70
2022/02/08 23:39:34;;;;;;;;;;;;;;;;;;5013173;28;20322;-72
2022/02/08 23:42:03;;;;;;;;;;;;;;;;;;5013372;28;19917;-71
2022/02/08 23:44:32;;;;;;;;;;;;;;;;;;5015085;28;19976;-71
2022/02/08 23:46:58;;;;;;;;;;;;;;;;;;5012998;28;19936;-70
2022/02/08 23:49:32;;;;;;;;;;;;;;;;;;5002839;28;20557;-70
2022/02/08 23:52:00;;;;;;;;;;;;;;;;;;5001730;28;19913;-72
2022/02/08 23:54:30;;;;;;;;;;;;;;;;;;4996639;28;20145;-71
2022/02/08 23:57:03;;;;;;;;;;;;;;;;;;5002089;28;19953;-72
2022/02/08 23:59:31;;;;;;;;;;;;;;;;;;4990851;28;19949;-77
